createdAt,value
2019-03-17T00:00:33.071Z,2.10
2019-03-17T00:03:00.403Z,2.40
2019-03-17T00:05:27.669Z,2.70
2019-03-17T00:07:54.860Z,2.23
2019-03-17T00:10:22.129Z,2.30
2019-03-17T00:12:49.324Z,2.77
2019-03-17T00:15:16.585Z,2.77
2019-03-17T00:17:43.785Z,2.60
2019-03-17T00:20:11.047Z,2.37
2019-03-17T00:22:38.323Z,2.90
2019-03-17T00:25:09.487Z,2.30
2019-03-17T00:27:35.132Z,2.63
2019-03-17T00:30:02.490Z,2.67
2019-03-17T00:32:29.744Z,2.47
2019-03-17T00:34:56.967Z,2.20
2019-03-17T00:37:24.161Z,2.50
2019-03-17T00:39:51.357Z,2.30
2019-03-17T00:42:18.632Z,2.30
2019-03-17T00:44:45.925Z,3.30
2019-03-17T00:47:13.181Z,2.83
2019-03-17T00:49:40.379Z,2.40
2019-03-17T00:52:07.693Z,2.80
2019-03-17T00:54:34.952Z,3.03
2019-03-17T00:57:02.129Z,2.40
2019-03-17T00:59:29.344Z,2.83
2019-03-17T01:01:56.599Z,2.63
2019-03-17T01:04:23.825Z,2.87
2019-03-17T01:06:51.076Z,2.73
2019-03-17T01:09:18.257Z,2.37
2019-03-17T01:11:45.507Z,3.17
2019-03-17T01:14:12.805Z,2.63
2019-03-17T01:16:39.998Z,3.00
2019-03-17T01:19:07.205Z,2.67
2019-03-17T01:21:34.461Z,3.60
2019-03-17T01:24:01.669Z,2.77
2019-03-17T01:26:28.953Z,2.83
2019-03-17T01:28:56.214Z,2.80
2019-03-17T01:31:23.490Z,2.90
2019-03-17T01:33:50.688Z,2.23
2019-03-17T01:36:17.889Z,2.70
2019-03-17T01:38:45.099Z,3.23
2019-03-17T01:41:12.379Z,2.60
2019-03-17T01:43:39.630Z,3.30
2019-03-17T01:46:06.909Z,3.13
2019-03-17T01:48:34.094Z,3.03
2019-03-17T01:51:01.382Z,2.60
2019-03-17T01:53:28.634Z,3.90
2019-03-17T01:55:56.318Z,3.17
2019-03-17T01:58:23.534Z,3.70
2019-03-17T02:00:50.721Z,2.90
2019-03-17T02:03:17.922Z,2.60
2019-03-17T02:05:45.184Z,2.90
2019-03-17T02:08:12.470Z,3.77
2019-03-17T02:10:39.663Z,2.90
2019-03-17T02:13:06.838Z,2.60
2019-03-17T02:15:34.053Z,3.13
2019-03-17T02:18:01.225Z,2.67
2019-03-17T02:20:28.447Z,2.97
2019-03-17T02:22:55.712Z,2.90
2019-03-17T02:25:22.958Z,2.23
2019-03-17T02:27:50.145Z,2.67
2019-03-17T02:30:17.453Z,2.70
2019-03-17T02:32:44.704Z,2.50
2019-03-17T02:35:11.974Z,2.47
2019-03-17T02:37:39.235Z,2.23
2019-03-17T02:40:06.518Z,2.73
2019-03-17T02:42:33.764Z,2.10
2019-03-17T02:45:00.968Z,2.13
2019-03-17T02:47:28.250Z,2.10
2019-03-17T02:49:55.528Z,1.80
2019-03-17T02:52:22.792Z,1.90
2019-03-17T02:54:50.102Z,2.57
2019-03-17T02:57:17.366Z,2.33
2019-03-17T02:59:44.563Z,2.07
2019-03-17T03:02:11.834Z,1.87
2019-03-17T03:04:39.073Z,1.80
2019-03-17T03:07:06.270Z,1.80
2019-03-17T03:09:33.537Z,1.97
2019-03-17T03:12:00.761Z,1.77
2019-03-17T03:14:27.963Z,1.67
2019-03-17T03:16:55.207Z,2.20
2019-03-17T03:19:22.491Z,1.70
2019-03-17T03:21:49.766Z,2.17
2019-03-17T03:24:17.050Z,1.67
2019-03-17T03:26:44.326Z,2.10
2019-03-17T03:29:11.587Z,2.17
2019-03-17T03:31:38.904Z,1.70
2019-03-17T03:34:06.170Z,2.10
2019-03-17T03:36:33.443Z,1.37
2019-03-17T03:39:00.691Z,1.90
2019-03-17T03:41:27.988Z,1.50
2019-03-17T03:43:55.245Z,1.50
2019-03-17T03:46:22.531Z,1.80
2019-03-17T03:48:49.794Z,2.10
2019-03-17T03:51:16.976Z,1.80
2019-03-17T03:53:44.273Z,1.80
2019-03-17T03:56:11.545Z,1.67
2019-03-17T03:58:38.789Z,1.80
2019-03-17T04:01:05.996Z,1.50
2019-03-17T04:03:33.278Z,1.90
2019-03-17T04:06:00.518Z,1.80
2019-03-17T04:08:27.842Z,1.80
2019-03-17T04:10:55.062Z,1.90
2019-03-17T04:13:22.239Z,2.43
2019-03-17T04:15:49.541Z,1.90
2019-03-17T04:18:16.793Z,2.13
2019-03-17T04:20:44.046Z,2.10
2019-03-17T04:23:11.240Z,2.37
2019-03-17T04:25:38.505Z,2.00
2019-03-17T04:28:05.757Z,2.30
2019-03-17T04:30:32.978Z,2.00
2019-03-17T04:33:00.249Z,2.07
2019-03-17T04:35:27.473Z,2.20
2019-03-17T04:37:54.684Z,2.03
2019-03-17T04:40:21.883Z,2.77
2019-03-17T04:42:49.136Z,2.47
2019-03-17T04:45:16.419Z,2.27
2019-03-17T04:47:43.609Z,1.60
2019-03-17T04:50:10.836Z,2.23
2019-03-17T04:52:38.029Z,2.43
2019-03-17T04:55:05.773Z,2.50
2019-03-17T04:57:32.953Z,1.77
2019-03-17T05:00:00.439Z,1.93
2019-03-17T05:02:27.711Z,2.20
2019-03-17T05:04:54.905Z,2.03
2019-03-17T05:07:22.089Z,2.10
2019-03-17T05:09:49.276Z,2.07
2019-03-17T05:12:16.465Z,1.80
2019-03-17T05:14:43.657Z,2.03
2019-03-17T05:17:10.863Z,1.63
2019-03-17T05:19:38.110Z,1.87
2019-03-17T05:22:05.332Z,1.70
2019-03-17T05:24:32.518Z,2.00
2019-03-17T05:26:59.742Z,2.10
2019-03-17T05:29:26.946Z,2.03
2019-03-17T05:31:54.130Z,1.90
2019-03-17T05:34:21.330Z,1.63
2019-03-17T05:36:48.507Z,1.80
2019-03-17T05:39:15.693Z,1.73
2019-03-17T05:41:42.871Z,1.67
2019-03-17T05:44:10.057Z,1.67
2019-03-17T05:46:37.267Z,1.60
2019-03-17T05:49:04.457Z,1.90
2019-03-17T05:51:31.634Z,1.57
2019-03-17T05:53:58.850Z,1.60
2019-03-17T05:56:26.020Z,1.47
2019-03-17T05:58:53.270Z,1.97
2019-03-17T06:01:20.529Z,1.53
2019-03-17T06:03:47.713Z,1.63
2019-03-17T06:06:14.892Z,1.87
2019-03-17T06:08:42.075Z,1.37
2019-03-17T06:11:09.284Z,1.60
2019-03-17T06:13:36.465Z,1.63
2019-03-17T06:16:03.740Z,1.53
2019-03-17T06:18:31.000Z,1.80
2019-03-17T06:20:58.197Z,1.90
2019-03-17T06:23:25.414Z,1.53
2019-03-17T06:25:52.618Z,1.50
2019-03-17T06:28:21.603Z,2.17
2019-03-17T06:30:48.723Z,1.67
2019-03-17T06:33:15.921Z,1.50
2019-03-17T06:35:43.095Z,1.33
2019-03-17T06:38:10.293Z,1.20
2019-03-17T06:40:37.492Z,1.30
2019-03-17T06:43:04.662Z,1.60
2019-03-17T06:45:31.874Z,1.50
2019-03-17T06:47:59.060Z,1.30
2019-03-17T06:50:26.257Z,1.37
2019-03-17T06:52:53.783Z,2.03
2019-03-17T06:55:21.099Z,1.23
2019-03-17T06:57:48.278Z,2.10
2019-03-17T07:00:15.491Z,1.70
2019-03-17T07:02:42.746Z,1.27
2019-03-17T07:05:09.972Z,1.60
2019-03-17T07:07:44.019Z,1.50
2019-03-17T07:10:07.782Z,1.53
2019-03-17T07:12:34.972Z,1.30
2019-03-17T07:15:02.170Z,1.23
2019-03-17T07:17:29.443Z,1.37
2019-03-17T07:19:56.627Z,1.97
